Time;durP1;ratioP1;P1;durP2;ratioP2;P2;SDS_P1;SDS_P2;PMS_P1;PMS_P2;Temp;Humidity;BMP_temperature;BMP_pressure;BME280_temperature;BME280_humidity;BME280_pressure;Samples;Min_cycle;Max_cycle;Signal;HPM_P1;HPM_P2
2022/10/15 00:00:51;;;;;;;12.50;6.70;;;;;;;;;;5140420;27;20022;-71
2022/10/15 00:03:38;;;;;;;12.27;7.13;;;;;;;;;;5139589;27;20019;-71
2022/10/15 00:06:24;;;;;;;15.43;6.97;;;;;;;;;;5154851;27;20495;-71
2022/10/15 00:09:09;;;;;;;14.15;6.97;;;;;;;;;;5154722;27;20030;-72
2022/10/15 00:11:55;;;;;;;14.45;7.75;;;;;;;;;;5139762;27;20436;-72
2022/10/15 00:14:40;;;;;;;15.60;7.47;;;;;;;;;;5154187;27;20015;-71
2022/10/15 00:17:26;;;;;;;19.05;8.05;;;;;;;;;;5154138;27;20445;-71
2022/10/15 00:20:12;;;;;;;17.60;7.88;;;;;;;;;;5154563;27;20099;-71
2022/10/15 00:22:57;;;;;;;15.73;7.65;;;;;;;;;;5138922;27;20440;-72
2022/10/15 00:25:43;;;;;;;16.55;7.72;;;;;;;;;;5154654;27;20026;-71
2022/10/15 00:28:28;;;;;;;19.02;7.15;;;;;;;;;;5154524;27;20037;-71
2022/10/15 00:31:15;;;;;;;16.50;7.38;;;;;;;;;;5154775;27;20435;-72
2022/10/15 00:34:01;;;;;;;15.98;8.00;;;;;;;;;;5155487;27;20015;-71
2022/10/15 00:36:48;;;;;;;19.35;8.10;;;;;;;;;;5156766;27;20061;-72
2022/10/15 00:39:34;;;;;;;13.93;7.80;;;;;;;;;;5157980;27;20053;-71
2022/10/15 00:42:20;;;;;;;13.98;7.75;;;;;;;;;;5157641;27;20025;-71
2022/10/15 00:45:10;;;;;;;19.55;7.75;;;;;;;;;;5143373;27;20019;-71
2022/10/15 00:47:55;;;;;;;14.98;7.40;;;;;;;;;;5157517;27;20015;-71
2022/10/15 00:50:41;;;;;;;11.50;7.20;;;;;;;;;;5157919;27;20011;-72
2022/10/15 00:53:26;;;;;;;15.18;6.93;;;;;;;;;;5158169;27;20444;-72
2022/10/15 00:56:12;;;;;;;11.07;6.82;;;;;;;;;;5143241;27;20033;-72
2022/10/15 00:58:59;;;;;;;14.70;6.75;;;;;;;;;;5158246;27;20018;-71
2022/10/15 01:01:45;;;;;;;13.55;7.25;;;;;;;;;;5143370;27;20015;-71
2022/10/15 01:04:31;;;;;;;11.70;7.03;;;;;;;;;;5158115;27;20034;-72
2022/10/15 01:07:16;;;;;;;14.43;7.68;;;;;;;;;;5157198;27;20078;-71
2022/10/15 01:10:03;;;;;;;14.95;7.32;;;;;;;;;;5156767;27;20333;-71
2022/10/15 01:12:52;;;;;;;14.43;7.38;;;;;;;;;;5157369;27;20015;-70
2022/10/15 01:15:37;;;;;;;13.30;7.70;;;;;;;;;;5157596;27;20097;-71
2022/10/15 01:18:26;;;;;;;14.38;7.63;;;;;;;;;;5156793;27;20014;-71
2022/10/15 01:21:16;;;;;;;17.10;8.63;;;;;;;;;;5156499;27;20512;-71
2022/10/15 01:24:13;;;;;;;15.75;8.15;;;;;;;;;;5157328;27;20030;-72
2022/10/15 01:27:11;;;;;;;21.05;8.55;;;;;;;;;;5156903;27;20032;-71
2022/10/15 01:30:15;;;;;;;21.63;8.75;;;;;;;;;;5157575;27;20443;-71
2022/10/15 01:33:00;;;;;;;20.02;9.35;;;;;;;;;;5155766;27;20079;-71
2022/10/15 01:35:52;;;;;;;21.15;8.43;;;;;;;;;;5156908;27;20058;-71
2022/10/15 01:38:47;;;;;;;21.05;8.82;;;;;;;;;;5156646;27;20118;-71
2022/10/15 01:42:05;;;;;;;18.48;8.55;;;;;;;;;;5157116;27;20087;-71
2022/10/15 01:44:52;;;;;;;23.70;8.27;;;;;;;;;;5110166;27;20038;-72
2022/10/15 01:47:53;;;;;;;20.85;7.75;;;;;;;;;;5142106;27;20031;-72
2022/10/15 01:50:41;;;;;;;22.55;8.55;;;;;;;;;;5157913;27;20094;-71
2022/10/15 01:53:28;;;;;;;22.98;8.40;;;;;;;;;;5157431;27;20015;-71
2022/10/15 01:56:16;;;;;;;18.83;7.03;;;;;;;;;;5157641;27;20448;-71
2022/10/15 01:59:02;;;;;;;23.25;7.63;;;;;;;;;;5157885;27;20019;-71
2022/10/15 02:01:48;;;;;;;14.73;5.47;;;;;;;;;;5155448;27;20010;-72
2022/10/15 02:04:33;;;;;;;10.75;5.03;;;;;;;;;;5156597;27;20440;-71
2022/10/15 02:07:51;;;;;;;11.52;5.53;;;;;;;;;;5156674;27;20019;-72
2022/10/15 02:10:56;;;;;;;18.63;5.55;;;;;;;;;;5123520;27;20034;-71
2022/10/15 02:13:53;;;;;;;36.20;13.73;;;;;;;;;;5156854;27;20021;-71
2022/10/15 02:17:02;;;;;;;23.45;10.63;;;;;;;;;;5140941;27;20018;-71
2022/10/15 02:19:50;;;;;;;8.77;4.82;;;;;;;;;;5142449;27;20019;-71
2022/10/15 02:22:44;;;;;;;9.50;5.28;;;;;;;;;;5155687;27;20033;-71
2022/10/15 02:25:30;;;;;;;9.15;5.30;;;;;;;;;;5141185;27;20023;-71
2022/10/15 02:28:17;;;;;;;11.00;5.30;;;;;;;;;;5141086;27;20026;-71
2022/10/15 02:31:04;;;;;;;13.60;5.70;;;;;;;;;;5155764;27;20075;-72
2022/10/15 02:33:52;;;;;;;10.35;5.40;;;;;;;;;;5156152;27;20359;-71
2022/10/15 02:36:38;;;;;;;9.10;5.30;;;;;;;;;;5155007;27;20054;-72
2022/10/15 02:39:24;;;;;;;11.02;5.47;;;;;;;;;;5155552;27;20053;-71
2022/10/15 02:42:10;;;;;;;9.60;5.43;;;;;;;;;;5140033;27;20019;-70
2022/10/15 02:44:56;;;;;;;9.85;5.03;;;;;;;;;;5156339;27;20029;-71
2022/10/15 02:47:41;;;;;;;9.95;6.03;;;;;;;;;;5154184;27;20069;-72
2022/10/15 02:50:27;;;;;;;16.83;9.38;;;;;;;;;;5155711;27;20023;-71
2022/10/15 02:53:12;;;;;;;11.48;7.47;;;;;;;;;;5140424;27;20014;-71
2022/10/15 02:55:58;;;;;;;16.50;8.50;;;;;;;;;;5140746;27;20094;-70
2022/10/15 02:58:43;;;;;;;12.18;6.60;;;;;;;;;;5155261;27;20034;-71
2022/10/15 03:01:29;;;;;;;11.88;6.78;;;;;;;;;;5155700;27;20015;-71
2022/10/15 03:04:15;;;;;;;11.82;6.45;;;;;;;;;;5140916;27;20044;-70
2022/10/15 03:07:00;;;;;;;15.10;6.53;;;;;;;;;;5155263;27;20050;-70
2022/10/15 03:09:46;;;;;;;11.27;5.90;;;;;;;;;;5155010;27;20031;-71
2022/10/15 03:12:31;;;;;;;16.92;6.20;;;;;;;;;;5154652;27;20420;-71
2022/10/15 03:15:17;;;;;;;13.23;6.18;;;;;;;;;;5154575;27;20025;-71
2022/10/15 03:18:03;;;;;;;17.05;7.18;;;;;;;;;;5155672;27;20033;-71
2022/10/15 03:20:53;;;;;;;16.75;6.93;;;;;;;;;;5154440;27;20451;-72
2022/10/15 03:23:38;;;;;;;13.85;6.15;;;;;;;;;;5154882;27;20019;-71
2022/10/15 03:26:24;;;;;;;17.30;6.72;;;;;;;;;;5154716;27;20046;-72
2022/10/15 03:29:10;;;;;;;12.07;6.55;;;;;;;;;;5155746;27;20432;-72
2022/10/15 03:31:55;;;;;;;14.10;7.43;;;;;;;;;;5154427;27;20420;-70
2022/10/15 03:34:41;;;;;;;13.40;7.55;;;;;;;;;;5140584;27;20034;-71
2022/10/15 03:37:26;;;;;;;12.55;7.63;;;;;;;;;;5154241;27;20468;-71
2022/10/15 03:40:12;;;;;;;14.93;8.40;;;;;;;;;;5154800;27;20027;-71
2022/10/15 03:42:58;;;;;;;15.80;8.55;;;;;;;;;;5155015;27;20038;-71
2022/10/15 03:45:43;;;;;;;18.80;8.73;;;;;;;;;;5154641;27;20432;-72
2022/10/15 03:48:29;;;;;;;23.88;9.25;;;;;;;;;;5154483;27;20023;-72
2022/10/15 03:51:14;;;;;;;20.00;9.65;;;;;;;;;;5139076;27;20079;-72
2022/10/15 03:54:00;;;;;;;21.13;10.13;;;;;;;;;;5155008;27;20014;-71
2022/10/15 03:56:46;;;;;;;25.90;11.88;;;;;;;;;;5155053;27;20581;-72
2022/10/15 03:59:31;;;;;;;23.52;11.43;;;;;;;;;;5154733;27;20023;-72
2022/10/15 04:02:17;;;;;;;21.90;9.70;;;;;;;;;;5140437;27;20019;-72
2022/10/15 04:05:03;;;;;;;16.27;8.57;;;;;;;;;;5154574;27;20106;-71
2022/10/15 04:07:48;;;;;;;14.68;8.55;;;;;;;;;;5139492;27;20022;-72
2022/10/15 04:10:34;;;;;;;18.08;9.68;;;;;;;;;;5143853;27;20480;-73
2022/10/15 04:13:19;;;;;;;28.25;12.73;;;;;;;;;;5158513;27;20018;-72
2022/10/15 04:16:05;;;;;;;19.25;9.57;;;;;;;;;;5143184;27;20030;-71
2022/10/15 04:18:51;;;;;;;16.80;7.95;;;;;;;;;;5158178;27;20015;-72
2022/10/15 04:21:36;;;;;;;10.93;6.50;;;;;;;;;;5158613;27;20529;-71
2022/10/15 04:24:22;;;;;;;13.88;8.10;;;;;;;;;;5158591;27;20087;-73
2022/10/15 04:27:07;;;;;;;18.77;6.75;;;;;;;;;;5143313;27;20445;-72
2022/10/15 04:29:53;;;;;;;11.07;6.68;;;;;;;;;;5158500;27;20393;-72
2022/10/15 04:32:39;;;;;;;16.90;7.38;;;;;;;;;;5158031;27;20037;-72
2022/10/15 04:35:24;;;;;;;14.77;7.20;;;;;;;;;;5158030;27;20054;-72
2022/10/15 04:38:10;;;;;;;14.13;7.25;;;;;;;;;;5142365;27;20046;-72
2022/10/15 04:41:03;;;;;;;15.90;7.53;;;;;;;;;;5158231;27;20423;-72
2022/10/15 04:43:49;;;;;;;15.43;7.68;;;;;;;;;;5159219;27;20067;-72
2022/10/15 04:46:34;;;;;;;17.10;7.70;;;;;;;;;;5142839;27;20101;-71
2022/10/15 04:49:20;;;;;;;19.40;7.47;;;;;;;;;;5157765;27;20015;-73
2022/10/15 04:52:05;;;;;;;14.60;7.20;;;;;;;;;;5157546;27;20466;-72
2022/10/15 04:54:51;;;;;;;13.07;7.05;;;;;;;;;;5157893;27;20151;-71
2022/10/15 04:57:37;;;;;;;13.70;7.13;;;;;;;;;;5157502;27;20552;-72
2022/10/15 05:00:22;;;;;;;18.90;7.53;;;;;;;;;;5158183;27;20050;-73
2022/10/15 05:03:08;;;;;;;13.50;6.97;;;;;;;;;;5157697;27;20019;-72
2022/10/15 05:05:53;;;;;;;17.30;7.65;;;;;;;;;;5142376;27;20019;-72
2022/10/15 05:08:42;;;;;;;15.23;7.22;;;;;;;;;;5157650;27;20451;-72
2022/10/15 05:11:28;;;;;;;16.13;7.55;;;;;;;;;;5157072;27;20015;-73
2022/10/15 05:14:14;;;;;;;16.80;8.32;;;;;;;;;;5157322;27;20011;-72
2022/10/15 05:16:59;;;;;;;13.63;7.40;;;;;;;;;;5157887;27;20026;-72
2022/10/15 05:19:45;;;;;;;16.52;7.45;;;;;;;;;;5142508;27;20079;-72
2022/10/15 05:22:30;;;;;;;17.10;8.05;;;;;;;;;;5156902;27;20041;-72
2022/10/15 05:25:16;;;;;;;15.73;7.90;;;;;;;;;;5157615;27;20026;-71
2022/10/15 05:28:01;;;;;;;14.57;7.70;;;;;;;;;;5142279;27;20115;-72
2022/10/15 05:30:47;;;;;;;16.73;7.43;;;;;;;;;;5157606;27;20015;-72
2022/10/15 05:33:33;;;;;;;19.10;7.70;;;;;;;;;;5142413;27;20022;-72
2022/10/15 05:36:20;;;;;;;17.33;7.95;;;;;;;;;;5141783;27;20041;-71
2022/10/15 05:39:09;;;;;;;12.07;7.30;;;;;;;;;;5142438;27;20030;-73
2022/10/15 05:41:54;;;;;;;17.45;8.20;;;;;;;;;;5156508;27;20077;-71
2022/10/15 05:44:40;;;;;;;18.80;8.27;;;;;;;;;;5156060;27;20015;-72
2022/10/15 05:47:25;;;;;;;15.38;8.63;;;;;;;;;;5156495;27;20095;-73
2022/10/15 05:50:11;;;;;;;19.40;9.32;;;;;;;;;;5156886;27;20431;-71
2022/10/15 05:52:57;;;;;;;17.40;9.80;;;;;;;;;;5157047;27;20026;-72
2022/10/15 05:55:42;;;;;;;15.48;8.77;;;;;;;;;;5141552;27;20348;-71
2022/10/15 05:58:28;;;;;;;15.23;9.20;;;;;;;;;;5156851;27;20155;-73
2022/10/15 06:01:14;;;;;;;14.98;8.52;;;;;;;;;;5156644;27;20409;-72
2022/10/15 06:04:00;;;;;;;18.63;9.13;;;;;;;;;;5156254;27;20010;-72
2022/10/15 06:06:46;;;;;;;16.33;10.38;;;;;;;;;;5140888;27;20034;-74
2022/10/15 06:09:32;;;;;;;25.15;12.25;;;;;;;;;;5156093;27;20010;-72
2022/10/15 06:12:17;;;;;;;22.88;11.65;;;;;;;;;;5156201;27;20460;-73
2022/10/15 06:15:03;;;;;;;16.58;10.82;;;;;;;;;;5156637;27;20023;-72
2022/10/15 06:17:51;;;;;;;20.75;11.18;;;;;;;;;;5156023;27;20151;-72
2022/10/15 06:20:37;;;;;;;19.42;10.88;;;;;;;;;;5140957;27;20443;-72
2022/10/15 06:23:23;;;;;;;19.38;10.60;;;;;;;;;;5155632;27;20127;-72
2022/10/15 06:26:09;;;;;;;21.27;11.15;;;;;;;;;;5156290;27;20026;-71
2022/10/15 06:28:54;;;;;;;23.80;11.00;;;;;;;;;;5155645;27;20046;-72
2022/10/15 06:31:40;;;;;;;26.88;11.43;;;;;;;;;;5155782;27;20029;-73
2022/10/15 06:34:25;;;;;;;33.53;13.25;;;;;;;;;;5155974;27;20428;-71
2022/10/15 06:37:11;;;;;;;26.42;13.52;;;;;;;;;;5155703;27;20054;-71
2022/10/15 06:39:56;;;;;;;25.20;13.93;;;;;;;;;;5156546;27;20022;-71
2022/10/15 06:42:42;;;;;;;21.98;14.10;;;;;;;;;;5155302;27;20033;-72
2022/10/15 06:45:28;;;;;;;25.45;14.25;;;;;;;;;;5155522;27;20101;-70
2022/10/15 06:48:13;;;;;;;20.27;13.75;;;;;;;;;;5155923;27;20027;-71
2022/10/15 06:50:59;;;;;;;23.08;14.50;;;;;;;;;;5155698;27;20163;-70
2022/10/15 06:53:45;;;;;;;25.05;14.43;;;;;;;;;;5155476;27;20022;-72
2022/10/15 06:56:31;;;;;;;23.88;14.77;;;;;;;;;;5155592;27;20026;-71
2022/10/15 06:59:16;;;;;;;25.20;15.25;;;;;;;;;;5155569;27;20034;-71
2022/10/15 07:02:02;;;;;;;22.65;14.10;;;;;;;;;;5154704;27;20110;-71
2022/10/15 07:04:48;;;;;;;23.88;14.32;;;;;;;;;;5140207;27;20038;-72
2022/10/15 07:07:33;;;;;;;25.73;13.85;;;;;;;;;;5155494;27;20023;-72
2022/10/15 07:10:19;;;;;;;20.83;12.65;;;;;;;;;;5139681;27;20022;-71
2022/10/15 07:13:05;;;;;;;21.83;12.70;;;;;;;;;;5155236;27;20071;-72
2022/10/15 07:15:52;;;;;;;22.80;12.45;;;;;;;;;;5155442;27;20393;-73
2022/10/15 07:18:38;;;;;;;20.95;12.25;;;;;;;;;;5155081;27;20125;-72
2022/10/15 07:21:24;;;;;;;23.23;12.52;;;;;;;;;;5140769;27;20102;-72
2022/10/15 07:24:09;;;;;;;26.38;13.50;;;;;;;;;;5155033;27;20018;-71
2022/10/15 07:26:55;;;;;;;21.63;12.43;;;;;;;;;;5154522;27;20082;-71
2022/10/15 07:29:43;;;;;;;30.83;12.82;;;;;;;;;;5155708;27;20384;-71
2022/10/15 07:32:29;;;;;;;26.40;12.35;;;;;;;;;;5154791;27;20027;-71
2022/10/15 07:35:14;;;;;;;24.45;11.75;;;;;;;;;;5155481;27;20042;-71
2022/10/15 07:38:01;;;;;;;26.48;12.50;;;;;;;;;;5154064;27;20047;-71
2022/10/15 07:40:46;;;;;;;22.60;11.10;;;;;;;;;;5155255;27;20037;-70
2022/10/15 07:43:33;;;;;;;22.17;11.73;;;;;;;;;;5156170;27;20018;-71
2022/10/15 07:46:18;;;;;;;25.95;12.10;;;;;;;;;;5143394;27;20463;-71
2022/10/15 07:49:04;;;;;;;20.48;11.35;;;;;;;;;;5159712;27;20011;-70
2022/10/15 07:51:49;;;;;;;22.33;10.77;;;;;;;;;;5159694;27;20022;-71
2022/10/15 07:54:35;;;;;;;24.80;11.07;;;;;;;;;;5159411;27;20014;-70
2022/10/15 07:57:21;;;;;;;23.27;10.73;;;;;;;;;;5158221;27;20407;-71
2022/10/15 08:00:07;;;;;;;26.70;11.90;;;;;;;;;;5158641;27;20022;-70
2022/10/15 08:02:52;;;;;;;19.88;9.88;;;;;;;;;;5159411;27;20029;-71
2022/10/15 08:05:38;;;;;;;22.50;9.82;;;;;;;;;;5158156;27;20062;-70
2022/10/15 08:08:24;;;;;;;22.60;11.10;;;;;;;;;;5158183;27;20441;-72
2022/10/15 08:11:11;;;;;;;16.02;9.82;;;;;;;;;;5159230;27;20327;-71
2022/10/15 08:13:56;;;;;;;23.58;10.45;;;;;;;;;;5158762;27;20410;-70
2022/10/15 08:16:42;;;;;;;20.95;11.60;;;;;;;;;;5158692;27;20101;-73
2022/10/15 08:19:28;;;;;;;25.27;12.15;;;;;;;;;;5158623;27;20046;-74
2022/10/15 08:22:13;;;;;;;24.15;12.05;;;;;;;;;;5158700;27;20026;-74
2022/10/15 08:24:59;;;;;;;29.27;12.40;;;;;;;;;;5158991;27;20026;-74
2022/10/15 08:27:44;;;;;;;25.20;11.35;;;;;;;;;;5143721;27;20061;-74
2022/10/15 08:30:30;;;;;;;21.55;11.80;;;;;;;;;;5157375;27;20368;-74
2022/10/15 08:33:15;;;;;;;18.67;10.52;;;;;;;;;;5157538;27;20018;-74
2022/10/15 08:36:03;;;;;;;26.20;11.93;;;;;;;;;;5158317;27;20072;-74
2022/10/15 08:38:48;;;;;;;23.92;12.25;;;;;;;;;;5158489;27;20431;-73
2022/10/15 08:41:34;;;;;;;19.33;11.05;;;;;;;;;;5143040;27;20113;-74
2022/10/15 08:44:22;;;;;;;23.40;11.65;;;;;;;;;;5158448;27;20083;-74
2022/10/15 08:47:11;;;;;;;20.83;10.98;;;;;;;;;;5157390;27;20047;-75
2022/10/15 08:49:58;;;;;;;25.33;11.30;;;;;;;;;;5158411;27;20050;-76
2022/10/15 08:52:45;;;;;;;28.80;12.98;;;;;;;;;;5144947;27;20025;-77
2022/10/15 08:55:37;;;;;;;24.25;12.20;;;;;;;;;;5157244;27;20051;-78
2022/10/15 08:58:22;;;;;;;25.30;12.23;;;;;;;;;;5161855;27;20022;-75
2022/10/15 09:01:12;;;;;;;20.02;11.93;;;;;;;;;;5158144;27;20026;-77
2022/10/15 09:04:06;;;;;;;26.52;12.23;;;;;;;;;;5158240;27;20019;-78
2022/10/15 09:06:59;;;;;;;28.30;13.52;;;;;;;;;;5157917;27;20077;-76
2022/10/15 09:09:52;;;;;;;21.27;10.93;;;;;;;;;;5143361;27;20014;-78
2022/10/15 09:12:46;;;;;;;19.92;11.75;;;;;;;;;;5157592;27;20029;-79
2022/10/15 09:15:35;;;;;;;20.88;11.55;;;;;;;;;;5158155;27;20135;-78
2022/10/15 09:18:22;;;;;;;22.10;11.13;;;;;;;;;;5158833;27;20022;-78
2022/10/15 09:21:10;;;;;;;18.60;11.20;;;;;;;;;;5160780;27;20018;-79
2022/10/15 09:23:57;;;;;;;24.10;11.95;;;;;;;;;;5153619;27;20387;-79
2022/10/15 09:26:50;;;;;;;22.30;11.00;;;;;;;;;;5157729;27;20022;-80
2022/10/15 09:29:36;;;;;;;20.23;9.00;;;;;;;;;;5142117;27;20022;-78
2022/10/15 09:32:44;;;;;;;17.92;8.63;;;;;;;;;;5157006;27;20022;-78
2022/10/15 09:35:35;;;;;;;17.52;8.98;;;;;;;;;;5157234;27;20018;-79
2022/10/15 09:38:30;;;;;;;18.05;9.82;;;;;;;;;;5142442;27;20039;-78
2022/10/15 09:41:26;;;;;;;16.50;9.07;;;;;;;;;;5157356;27;20448;-76
2022/10/15 09:44:13;;;;;;;12.13;7.93;;;;;;;;;;5141816;27;20025;-78
2022/10/15 09:46:58;;;;;;;13.43;7.53;;;;;;;;;;5156757;27;20037;-79
2022/10/15 09:49:44;;;;;;;14.18;9.98;;;;;;;;;;5156314;27;20030;-79
2022/10/15 09:52:39;;;;;;;13.25;6.85;;;;;;;;;;5141864;27;20118;-80
2022/10/15 09:55:27;;;;;;;11.32;7.85;;;;;;;;;;5141124;27;20079;-78
2022/10/15 09:58:19;;;;;;;14.23;7.30;;;;;;;;;;5141733;27;20083;-78
2022/10/15 10:01:06;;;;;;;14.50;7.00;;;;;;;;;;5156667;27;20015;-78
2022/10/15 10:03:53;;;;;;;12.30;6.45;;;;;;;;;;5156653;27;20019;-78
2022/10/15 10:06:46;;;;;;;12.15;7.47;;;;;;;;;;5140390;27;20122;-79
2022/10/15 10:09:36;;;;;;;16.85;7.40;;;;;;;;;;5157478;27;20019;-79
2022/10/15 10:12:24;;;;;;;19.52;7.93;;;;;;;;;;5156330;27;20385;-79
2022/10/15 10:15:28;;;;;;;14.82;7.40;;;;;;;;;;5157022;27;20358;-78
2022/10/15 10:18:24;;;;;;;21.75;8.10;;;;;;;;;;5155312;27;20027;-78
2022/10/15 10:21:23;;;;;;;16.85;7.57;;;;;;;;;;5156700;27;20058;-77
2022/10/15 10:24:18;;;;;;;14.27;7.32;;;;;;;;;;5157898;27;20019;-78
2022/10/15 10:27:15;;;;;;;15.15;7.20;;;;;;;;;;5141275;27;20015;-77
2022/10/15 10:30:01;;;;;;;16.45;7.30;;;;;;;;;;5141468;27;20092;-77
2022/10/15 10:32:47;;;;;;;11.20;6.57;;;;;;;;;;5140671;27;20015;-78
2022/10/15 10:35:35;;;;;;;13.77;7.03;;;;;;;;;;5156723;27;20104;-78
2022/10/15 10:38:22;;;;;;;16.98;7.53;;;;;;;;;;5155776;27;20057;-77
2022/10/15 10:41:09;;;;;;;11.80;7.20;;;;;;;;;;5155831;27;20131;-78
2022/10/15 10:43:55;;;;;;;14.05;7.60;;;;;;;;;;5141382;27;20472;-77
2022/10/15 10:46:41;;;;;;;12.15;6.50;;;;;;;;;;5155436;27;20478;-78
2022/10/15 10:49:30;;;;;;;12.20;6.55;;;;;;;;;;5155127;27;20095;-77
2022/10/15 10:52:29;;;;;;;11.43;6.55;;;;;;;;;;5156544;27;20026;-78
2022/10/15 10:55:19;;;;;;;10.52;5.97;;;;;;;;;;5156206;27;20029;-77
2022/10/15 10:58:08;;;;;;;10.73;5.35;;;;;;;;;;5154305;27;20473;-78
2022/10/15 11:00:58;;;;;;;11.57;5.35;;;;;;;;;;5140698;27;20072;-78
2022/10/15 11:03:44;;;;;;;8.02;4.53;;;;;;;;;;5155158;27;20023;-78
2022/10/15 11:06:39;;;;;;;12.20;4.65;;;;;;;;;;5140637;27;20477;-76
2022/10/15 11:09:43;;;;;;;7.43;4.70;;;;;;;;;;5140776;27;20051;-79
2022/10/15 11:12:42;;;;;;;11.77;5.10;;;;;;;;;;5155571;27;20432;-78
2022/10/15 11:15:31;;;;;;;8.13;4.82;;;;;;;;;;5156120;27;20023;-78
2022/10/15 11:18:22;;;;;;;9.18;4.53;;;;;;;;;;5154370;27;20451;-78
2022/10/15 11:21:27;;;;;;;13.18;5.47;;;;;;;;;;5155307;27;20030;-77
2022/10/15 11:24:28;;;;;;;11.80;5.90;;;;;;;;;;5156143;27;20471;-78
2022/10/15 11:27:18;;;;;;;8.43;4.20;;;;;;;;;;5154655;27;20122;-77
2022/10/15 11:30:12;;;;;;;7.78;4.80;;;;;;;;;;5154993;27;20050;-77
2022/10/15 11:33:04;;;;;;;7.05;4.43;;;;;;;;;;5155751;27;20053;-77
2022/10/15 11:35:52;;;;;;;7.18;4.30;;;;;;;;;;5140553;27;20030;-75
2022/10/15 11:38:44;;;;;;;8.40;4.10;;;;;;;;;;5154745;27;20042;-75
2022/10/15 11:41:33;;;;;;;12.48;4.45;;;;;;;;;;5123525;27;20038;-77
2022/10/15 11:44:25;;;;;;;11.23;4.10;;;;;;;;;;5156108;27;20030;-78
2022/10/15 11:47:17;;;;;;;5.50;4.07;;;;;;;;;;5155489;27;20031;-76
2022/10/15 11:50:06;;;;;;;5.95;4.07;;;;;;;;;;5155103;27;20029;-76
2022/10/15 11:53:10;;;;;;;7.50;4.28;;;;;;;;;;5154363;27;20033;-76
2022/10/15 11:55:59;;;;;;;9.30;4.78;;;;;;;;;;5154823;27;20019;-78
2022/10/15 11:58:47;;;;;;;7.70;4.05;;;;;;;;;;5155251;27;20103;-77
2022/10/15 12:01:37;;;;;;;6.45;3.83;;;;;;;;;;5154770;27;20409;-77
2022/10/15 12:04:28;;;;;;;8.73;4.50;;;;;;;;;;5155798;27;20022;-77
2022/10/15 12:07:21;;;;;;;9.10;3.97;;;;;;;;;;5154474;27;20062;-76
2022/10/15 12:10:07;;;;;;;7.70;4.05;;;;;;;;;;5139541;27;20421;-77
2022/10/15 12:13:16;;;;;;;7.85;3.83;;;;;;;;;;5155395;27;20084;-77
2022/10/15 12:16:20;;;;;;;6.68;4.50;;;;;;;;;;5129320;27;20455;-78
2022/10/15 12:19:19;;;;;;;6.88;4.18;;;;;;;;;;5140188;27;20515;-75
2022/10/15 12:22:10;;;;;;;8.70;4.40;;;;;;;;;;5154623;27;20109;-75
2022/10/15 12:24:56;;;;;;;7.60;4.47;;;;;;;;;;5154668;27;20372;-76
2022/10/15 12:27:41;;;;;;;7.13;4.03;;;;;;;;;;5154845;27;20118;-76
2022/10/15 12:30:31;;;;;;;10.10;4.40;;;;;;;;;;5157039;27;20030;-76
2022/10/15 12:33:25;;;;;;;6.80;4.30;;;;;;;;;;5158339;27;20409;-76
2022/10/15 12:36:20;;;;;;;6.30;4.13;;;;;;;;;;5157958;27;20043;-77
2022/10/15 12:39:19;;;;;;;9.00;4.50;;;;;;;;;;5157368;27;20111;-76
2022/10/15 12:42:15;;;;;;;8.82;4.20;;;;;;;;;;5157851;27;20042;-75
2022/10/15 12:45:03;;;;;;;9.10;5.30;;;;;;;;;;5143419;27;20101;-76
2022/10/15 12:47:48;;;;;;;7.35;4.43;;;;;;;;;;5157169;27;20037;-76
2022/10/15 12:50:36;;;;;;;5.88;4.50;;;;;;;;;;5157552;27;20011;-76
2022/10/15 12:53:24;;;;;;;6.90;4.75;;;;;;;;;;5158939;27;20018;-76
2022/10/15 12:56:13;;;;;;;9.10;4.68;;;;;;;;;;5170386;27;20044;-77
2022/10/15 12:58:58;;;;;;;8.18;4.65;;;;;;;;;;5163869;27;20048;-74
2022/10/15 13:01:44;;;;;;;8.70;5.10;;;;;;;;;;5175988;27;20051;-76
2022/10/15 13:04:36;;;;;;;8.40;4.80;;;;;;;;;;5172914;27;20015;-74
2022/10/15 13:07:22;;;;;;;8.05;4.88;;;;;;;;;;5170450;27;20019;-77
2022/10/15 13:10:20;;;;;;;7.70;5.05;;;;;;;;;;5161321;27;20093;-75
2022/10/15 13:13:10;;;;;;;13.38;5.18;;;;;;;;;;5158968;27;20450;-75
2022/10/15 13:16:00;;;;;;;8.10;4.90;;;;;;;;;;5157381;27;20071;-76
2022/10/15 13:18:50;;;;;;;9.23;4.97;;;;;;;;;;5156955;27;20023;-76
2022/10/15 13:21:55;;;;;;;8.15;4.60;;;;;;;;;;5157585;27;20552;-76
2022/10/15 13:24:44;;;;;;;7.65;4.95;;;;;;;;;;5157354;27;20064;-76
2022/10/15 13:27:31;;;;;;;8.98;5.18;;;;;;;;;;5158680;27;20465;-76
2022/10/15 13:30:16;;;;;;;6.78;4.95;;;;;;;;;;5171893;27;20019;-77
2022/10/15 13:33:02;;;;;;;6.95;4.75;;;;;;;;;;5159220;27;20015;-77
2022/10/15 13:35:48;;;;;;;7.63;4.65;;;;;;;;;;5142393;27;20022;-75
2022/10/15 13:38:34;;;;;;;6.82;4.30;;;;;;;;;;5156913;27;20023;-76
2022/10/15 13:41:24;;;;;;;7.68;4.55;;;;;;;;;;5156641;27;20019;-77
2022/10/15 13:44:29;;;;;;;8.80;4.32;;;;;;;;;;5129302;27;20475;-76
2022/10/15 13:47:23;;;;;;;8.45;4.65;;;;;;;;;;5156415;27;20058;-76
2022/10/15 13:50:10;;;;;;;7.28;4.40;;;;;;;;;;5158018;27;20473;-75
2022/10/15 13:53:07;;;;;;;6.32;4.40;;;;;;;;;;5157570;27;20090;-76
2022/10/15 13:55:55;;;;;;;12.75;4.68;;;;;;;;;;5156876;27;20014;-76
2022/10/15 13:58:40;;;;;;;9.23;4.47;;;;;;;;;;5157408;27;20086;-75
2022/10/15 14:01:27;;;;;;;8.82;4.95;;;;;;;;;;5157213;27;20023;-77
2022/10/15 14:04:14;;;;;;;8.35;4.72;;;;;;;;;;5157187;27;20023;-76
2022/10/15 14:07:02;;;;;;;7.72;4.43;;;;;;;;;;5156941;27;20022;-77
2022/10/15 14:09:47;;;;;;;11.07;4.95;;;;;;;;;;5140813;27;20027;-75
2022/10/15 14:12:33;;;;;;;9.05;4.53;;;;;;;;;;5156923;27;20428;-76
2022/10/15 14:15:37;;;;;;;9.13;4.55;;;;;;;;;;5140839;27;20018;-77
2022/10/15 14:18:31;;;;;;;9.93;4.90;;;;;;;;;;5154866;27;20042;-75
2022/10/15 14:21:19;;;;;;;9.30;4.35;;;;;;;;;;5142210;27;20087;-77
2022/10/15 14:24:15;;;;;;;8.15;4.47;;;;;;;;;;5156500;27;20034;-76
2022/10/15 14:27:13;;;;;;;7.32;4.93;;;;;;;;;;5155939;27;20022;-77
2022/10/15 14:30:00;;;;;;;7.57;4.97;;;;;;;;;;5156602;27;20056;-77
2022/10/15 14:32:47;;;;;;;9.13;5.53;;;;;;;;;;5156041;27;20023;-76
2022/10/15 14:35:34;;;;;;;14.70;6.50;;;;;;;;;;5155544;27;20026;-76
2022/10/15 14:38:24;;;;;;;10.85;5.90;;;;;;;;;;5158328;27;20085;-77
2022/10/15 14:41:25;;;;;;;14.05;6.15;;;;;;;;;;5156063;27;20389;-76
2022/10/15 14:44:10;;;;;;;10.07;7.05;;;;;;;;;;5140967;27;20023;-76
2022/10/15 14:47:00;;;;;;;10.13;7.65;;;;;;;;;;5154890;27;20026;-76
2022/10/15 14:49:46;;;;;;;13.10;6.72;;;;;;;;;;5155993;27;20025;-77
2022/10/15 14:52:34;;;;;;;12.95;7.10;;;;;;;;;;5154132;27;20014;-75
2022/10/15 14:55:23;;;;;;;10.90;7.43;;;;;;;;;;5155653;27;20015;-76
2022/10/15 14:58:10;;;;;;;13.85;7.28;;;;;;;;;;5139979;27;20029;-75
2022/10/15 15:01:00;;;;;;;13.43;7.55;;;;;;;;;;5155432;27;20031;-76
2022/10/15 15:03:50;;;;;;;11.95;7.40;;;;;;;;;;5155091;27;20451;-75
2022/10/15 15:06:35;;;;;;;12.18;7.28;;;;;;;;;;5155755;27;20041;-77
2022/10/15 15:09:21;;;;;;;12.43;8.13;;;;;;;;;;5155376;27;20039;-75
2022/10/15 15:12:14;;;;;;;13.02;7.60;;;;;;;;;;5155435;27;20030;-76
2022/10/15 15:15:00;;;;;;;13.13;7.75;;;;;;;;;;5155143;27;20019;-76
2022/10/15 15:17:47;;;;;;;13.27;8.25;;;;;;;;;;5154867;27;20030;-75
2022/10/15 15:20:32;;;;;;;12.18;8.10;;;;;;;;;;5155529;27;20019;-75
2022/10/15 15:23:20;;;;;;;12.63;7.97;;;;;;;;;;5155677;27;20317;-77
2022/10/15 15:26:05;;;;;;;10.55;8.02;;;;;;;;;;5155049;27;20037;-76
2022/10/15 15:28:51;;;;;;;13.45;8.55;;;;;;;;;;5154871;27;20058;-77
2022/10/15 15:31:36;;;;;;;16.70;8.80;;;;;;;;;;5155294;27;20015;-76
2022/10/15 15:34:22;;;;;;;16.95;9.27;;;;;;;;;;5154783;27;20010;-75
2022/10/15 15:37:12;;;;;;;16.73;9.70;;;;;;;;;;5156459;27;20054;-76
2022/10/15 15:39:57;;;;;;;15.07;9.30;;;;;;;;;;5154413;27;20019;-77
2022/10/15 15:42:43;;;;;;;21.55;10.27;;;;;;;;;;5126218;27;20074;-75
2022/10/15 15:45:29;;;;;;;14.98;10.50;;;;;;;;;;5155376;27;20431;-76
2022/10/15 15:48:15;;;;;;;14.23;9.88;;;;;;;;;;5154213;27;20117;-76
2022/10/15 15:51:16;;;;;;;19.05;10.43;;;;;;;;;;5154099;27;20023;-75
2022/10/15 15:54:05;;;;;;;15.88;9.50;;;;;;;;;;5139385;27;20037;-76
2022/10/15 15:56:50;;;;;;;16.52;11.10;;;;;;;;;;5155239;27;20417;-75
2022/10/15 15:59:36;;;;;;;16.15;11.27;;;;;;;;;;5154635;27;20010;-76
2022/10/15 16:02:21;;;;;;;17.42;11.82;;;;;;;;;;5155423;27;20022;-77
2022/10/15 16:05:08;;;;;;;19.40;11.73;;;;;;;;;;5157680;27;20520;-76
2022/10/15 16:07:53;;;;;;;17.48;11.48;;;;;;;;;;5158681;27;20443;-76
2022/10/15 16:10:39;;;;;;;16.15;11.50;;;;;;;;;;5159274;27;20015;-76
2022/10/15 16:13:25;;;;;;;17.10;11.98;;;;;;;;;;5158999;27;20018;-76
2022/10/15 16:16:10;;;;;;;20.65;13.00;;;;;;;;;;5159357;27;20161;-76
2022/10/15 16:18:56;;;;;;;22.95;13.70;;;;;;;;;;5158243;27;20026;-73
2022/10/15 16:21:41;;;;;;;24.00;14.50;;;;;;;;;;5158297;27;20086;-76
2022/10/15 16:24:27;;;;;;;27.00;16.00;;;;;;;;;;5158993;27;20030;-76
2022/10/15 16:27:12;;;;;;;25.38;16.40;;;;;;;;;;5159087;27;20069;-75
2022/10/15 16:29:58;;;;;;;36.72;17.10;;;;;;;;;;5159140;27;20010;-76
2022/10/15 16:32:44;;;;;;;38.33;19.25;;;;;;;;;;5158985;27;20015;-76